createdAt,value
2023-01-29T00:03:12.523Z,82.76
2023-01-29T00:07:11.475Z,81.49
2023-01-29T00:11:15.445Z,80.42
2023-01-29T00:15:13.439Z,79.67
2023-01-29T00:19:11.461Z,79.99
2023-01-29T00:23:09.448Z,80.25
2023-01-29T00:27:07.427Z,79.39
2023-01-29T00:31:05.463Z,78.74
2023-01-29T00:35:03.423Z,79.24
2023-01-29T00:39:06.397Z,79.87
2023-01-29T00:43:22.406Z,80.07
2023-01-29T00:47:34.550Z,80.12
2023-01-29T00:51:32.533Z,79.66
2023-01-29T00:55:30.413Z,79.79
2023-01-29T00:59:28.455Z,79.71
2023-01-29T01:03:26.415Z,77.44
2023-01-29T01:07:24.484Z,73.92
2023-01-29T01:11:22.379Z,74.17
2023-01-29T01:15:20.377Z,74.05
2023-01-29T01:19:20.466Z,74.34
2023-01-29T01:23:18.434Z,74.92
2023-01-29T01:27:16.347Z,75.54
2023-01-29T01:31:26.439Z,75.94
2023-01-29T01:35:26.329Z,75.98
2023-01-29T01:39:24.380Z,75.96
2023-01-29T01:43:24.411Z,76.01
2023-01-29T01:47:22.338Z,76.29
2023-01-29T01:51:20.305Z,76.35
2023-01-29T01:55:18.390Z,76.44
2023-01-29T01:59:16.300Z,76.43
2023-01-29T02:03:34.380Z,76.54
2023-01-29T02:07:49.303Z,75.53
2023-01-29T02:11:47.324Z,75.82
2023-01-29T02:15:48.270Z,76.04
2023-01-29T02:20:15.670Z,74.55
2023-01-29T02:24:37.300Z,73.87
2023-01-29T02:28:41.284Z,73.48
2023-01-29T02:33:09.228Z,73.42
2023-01-29T02:37:18.310Z,73.94
2023-01-29T02:41:21.216Z,74.00
2023-01-29T02:45:30.256Z,74.12
2023-01-29T02:49:40.242Z,74.02
2023-01-29T02:53:55.217Z,74.45
2023-01-29T02:57:58.194Z,74.11
2023-01-29T03:02:05.329Z,74.27
2023-01-29T03:06:13.227Z,74.34
2023-01-29T03:10:12.189Z,74.56
2023-01-29T03:14:23.188Z,74.84
2023-01-29T03:18:26.189Z,74.39
2023-01-29T03:22:30.176Z,74.27
2023-01-29T03:26:51.210Z,73.73
2023-01-29T03:31:19.234Z,72.82
2023-01-29T03:35:27.231Z,73.01
2023-01-29T03:39:25.183Z,72.96
2023-01-29T03:43:33.233Z,72.55
2023-01-29T03:47:39.159Z,72.68
2023-01-29T03:51:48.182Z,72.58
2023-01-29T03:56:14.110Z,72.66
2023-01-29T04:00:22.127Z,72.68
2023-01-29T04:04:48.103Z,72.75
2023-01-29T04:08:51.201Z,72.08
2023-01-29T04:13:02.170Z,71.86
2023-01-29T04:17:05.137Z,72.00
2023-01-29T04:21:10.105Z,71.53
2023-01-29T04:25:09.094Z,70.91
2023-01-29T04:29:38.092Z,71.60
2023-01-29T04:33:51.092Z,71.86
2023-01-29T04:37:59.062Z,71.56
2023-01-29T04:42:28.103Z,70.51
2023-01-29T04:46:33.050Z,70.32
2023-01-29T04:50:53.073Z,70.23
2023-01-29T04:55:20.014Z,70.74
2023-01-29T04:59:34.054Z,71.24
2023-01-29T05:03:32.021Z,71.83
2023-01-29T05:07:32.059Z,71.90
2023-01-29T05:11:31.030Z,71.73
2023-01-29T05:15:38.086Z,71.47
2023-01-29T05:19:36.218Z,70.81
2023-01-29T05:23:37.026Z,71.04
2023-01-29T05:28:03.005Z,70.85
2023-01-29T05:32:00.986Z,70.73
2023-01-29T05:35:58.978Z,70.51
2023-01-29T05:39:56.978Z,70.78
2023-01-29T05:43:54.980Z,70.74
2023-01-29T05:47:52.967Z,70.73
2023-01-29T05:51:50.963Z,70.69
2023-01-29T05:55:49.072Z,70.32
2023-01-29T05:59:46.914Z,70.04
2023-01-29T06:03:45.003Z,70.36
2023-01-29T06:07:43.773Z,69.98
2023-01-29T06:11:42.084Z,69.76
2023-01-29T06:15:39.972Z,69.71
2023-01-29T06:19:38.003Z,69.97
2023-01-29T06:23:35.910Z,70.03
2023-01-29T06:27:33.988Z,69.93
2023-01-29T06:31:39.821Z,69.74
2023-01-29T06:35:37.943Z,69.67
2023-01-29T06:39:35.916Z,69.47
2023-01-29T06:43:34.009Z,69.38
2023-01-29T06:47:31.919Z,69.51
2023-01-29T06:51:30.065Z,69.18
2023-01-29T06:55:27.930Z,69.23
2023-01-29T06:59:25.921Z,68.69
2023-01-29T07:03:24.858Z,68.60
2023-01-29T07:07:22.995Z,68.42
2023-01-29T07:11:21.849Z,68.00
2023-01-29T07:15:19.984Z,68.03
2023-01-29T07:19:18.026Z,67.83
2023-01-29T07:23:15.932Z,67.68
2023-01-29T07:27:13.826Z,67.06
2023-01-29T07:31:13.893Z,67.31
2023-01-29T07:35:11.816Z,67.30
2023-01-29T07:39:09.892Z,67.22
2023-01-29T07:43:15.870Z,66.91
2023-01-29T07:47:15.220Z,67.05
2023-01-29T07:51:13.764Z,66.65
2023-01-29T07:55:11.821Z,66.54
2023-01-29T07:59:10.864Z,66.03
2023-01-29T08:03:08.764Z,66.36
2023-01-29T08:07:06.748Z,65.80
2023-01-29T08:11:04.751Z,66.12
2023-01-29T08:15:02.808Z,65.69
2023-01-29T08:19:00.949Z,65.55
2023-01-29T08:22:58.727Z,65.70
2023-01-29T08:26:56.806Z,65.67
2023-01-29T08:30:54.744Z,65.82
2023-01-29T08:34:52.861Z,66.27
2023-01-29T08:38:50.746Z,65.67
2023-01-29T08:42:48.701Z,65.56
2023-01-29T08:46:47.702Z,65.26
2023-01-29T08:50:45.737Z,65.11
2023-01-29T08:54:43.706Z,65.28
2023-01-29T08:58:41.771Z,65.44
2023-01-29T09:02:39.759Z,64.82
2023-01-29T09:06:37.686Z,65.17
2023-01-29T09:10:35.689Z,65.53
2023-01-29T09:14:34.656Z,64.11
2023-01-29T09:18:32.785Z,63.36
2023-01-29T09:22:30.757Z,62.98
2023-01-29T09:26:28.739Z,63.01
2023-01-29T09:30:26.642Z,63.48
2023-01-29T09:34:24.635Z,63.16
2023-01-29T09:38:23.695Z,62.55
2023-01-29T09:42:50.619Z,62.49
2023-01-29T09:46:55.659Z,62.61
2023-01-29T09:50:57.661Z,62.35
2023-01-29T09:55:17.918Z,62.26
2023-01-29T09:59:15.597Z,61.88
2023-01-29T10:03:21.663Z,61.69
2023-01-29T10:07:28.579Z,62.16
2023-01-29T10:11:44.616Z,62.34
2023-01-29T10:16:04.699Z,62.01
2023-01-29T10:20:11.611Z,61.32
2023-01-29T10:24:26.576Z,60.89
2023-01-29T10:28:40.685Z,60.50
2023-01-29T10:32:41.572Z,59.71
2023-01-29T10:36:46.586Z,58.50
2023-01-29T10:40:53.556Z,58.38
2023-01-29T10:45:26.815Z,58.73
2023-01-29T10:49:10.029Z,59.20
2023-01-29T10:52:39.408Z,59.70
2023-01-29T10:56:23.189Z,60.06
2023-01-29T10:59:56.752Z,60.29
2023-01-29T11:03:28.699Z,60.87
2023-01-29T11:06:52.966Z,61.29
2023-01-29T11:10:22.449Z,61.41
2023-01-29T11:13:57.273Z,61.67
2023-01-29T11:17:26.324Z,62.09
2023-01-29T11:21:03.163Z,61.63
2023-01-29T11:24:27.496Z,61.51
2023-01-29T11:27:55.640Z,61.19
2023-01-29T11:31:39.543Z,60.42
2023-01-29T11:35:07.442Z,59.66
2023-01-29T11:38:31.379Z,59.60
2023-01-29T11:42:01.159Z,59.72
2023-01-29T11:45:30.049Z,59.71
2023-01-29T11:48:59.270Z,60.63
2023-01-29T11:52:42.139Z,59.62
2023-01-29T11:56:31.193Z,60.04
2023-01-29T11:59:58.021Z,60.07
2023-01-29T12:03:28.741Z,60.16
2023-01-29T12:06:54.446Z,59.98
2023-01-29T12:10:35.676Z,60.36
2023-01-29T12:14:05.139Z,59.85
2023-01-29T12:17:35.234Z,59.99
2023-01-29T12:21:05.735Z,60.08
2023-01-29T12:24:43.130Z,60.33
2023-01-29T12:28:23.696Z,60.60
2023-01-29T12:32:06.351Z,61.03
2023-01-29T12:35:39.757Z,61.22
2023-01-29T12:39:03.714Z,61.14
2023-01-29T12:42:27.809Z,61.05
2023-01-29T12:45:56.561Z,60.39
2023-01-29T12:49:25.699Z,60.35
2023-01-29T12:52:55.742Z,60.57
2023-01-29T12:56:42.555Z,61.03
2023-01-29T13:00:15.351Z,61.07
2023-01-29T13:03:59.839Z,61.39
2023-01-29T13:07:54.413Z,61.76
2023-01-29T13:12:01.390Z,62.12
2023-01-29T13:15:59.357Z,62.33
2023-01-29T13:20:00.323Z,62.52
2023-01-29T13:24:01.329Z,62.68
2023-01-29T13:28:00.367Z,62.88
2023-01-29T13:32:03.404Z,63.10
2023-01-29T13:36:01.337Z,62.72
2023-01-29T13:40:08.397Z,62.86
2023-01-29T13:44:06.335Z,62.66
2023-01-29T13:48:06.322Z,62.75
2023-01-29T13:52:04.392Z,63.25
2023-01-29T13:56:02.411Z,63.59
2023-01-29T14:00:08.305Z,63.80
2023-01-29T14:04:06.299Z,64.04
2023-01-29T14:08:06.267Z,64.32
2023-01-29T14:12:04.267Z,64.69
2023-01-29T14:16:22.312Z,64.67
2023-01-29T14:20:45.037Z,65.06
2023-01-29T14:24:45.281Z,65.57
2023-01-29T14:28:45.253Z,65.87
2023-01-29T14:36:57.279Z,66.49
2023-01-29T14:40:55.212Z,66.59
2023-01-29T14:45:00.283Z,67.05
2023-01-29T14:49:02.262Z,67.73
2023-01-29T14:53:02.299Z,67.95
2023-01-29T14:57:12.194Z,68.42
2023-01-29T15:01:12.263Z,68.66
2023-01-29T15:05:13.304Z,68.72
2023-01-29T15:09:22.031Z,68.67
2023-01-29T15:13:34.161Z,69.02
2023-01-29T15:17:47.235Z,69.56
2023-01-29T15:21:45.177Z,70.24
2023-01-29T15:25:50.195Z,70.45
2023-01-29T15:29:48.162Z,70.48
2023-01-29T15:33:48.171Z,70.71
2023-01-29T15:37:50.163Z,70.93
2023-01-29T15:41:48.191Z,71.42
2023-01-29T15:45:48.206Z,71.53
2023-01-29T15:49:49.139Z,71.55
2023-01-29T15:53:56.126Z,71.50
2023-01-29T15:57:56.423Z,71.52
2023-01-29T16:01:54.221Z,71.46
2023-01-29T16:05:59.177Z,71.56
2023-01-29T16:09:57.140Z,71.79
2023-01-29T16:13:57.385Z,72.04
2023-01-29T16:17:57.081Z,72.16
2023-01-29T16:21:58.126Z,72.32
2023-01-29T16:25:56.066Z,72.43
2023-01-29T16:29:54.121Z,72.52
2023-01-29T16:33:56.074Z,72.81
2023-01-29T16:37:54.076Z,72.80
2023-01-29T16:41:52.076Z,73.22
2023-01-29T16:45:52.015Z,73.33
2023-01-29T16:49:53.105Z,73.12
2023-01-29T16:53:51.076Z,73.88
2023-01-29T16:57:49.071Z,74.13
2023-01-29T17:01:49.209Z,74.05
2023-01-29T17:05:55.199Z,74.34
2023-01-29T17:09:53.131Z,74.42
2023-01-29T17:13:51.111Z,74.61
2023-01-29T17:17:50.025Z,74.88
2023-01-29T17:21:48.020Z,74.51
2023-01-29T17:25:46.277Z,74.47
2023-01-29T17:29:45.963Z,74.89
2023-01-29T17:33:44.049Z,75.47
2023-01-29T17:37:42.961Z,76.36
2023-01-29T17:41:45.046Z,77.14
2023-01-29T17:45:43.997Z,77.30
2023-01-29T17:49:43.979Z,77.14
2023-01-29T17:53:45.915Z,77.39
2023-01-29T17:57:44.038Z,78.02
2023-01-29T18:01:42.033Z,78.39
2023-01-29T18:05:40.007Z,79.13
2023-01-29T18:09:37.970Z,79.26
2023-01-29T18:13:35.980Z,79.29
2023-01-29T18:17:35.048Z,79.07
2023-01-29T18:21:33.007Z,79.76
2023-01-29T18:25:31.008Z,79.83
2023-01-29T18:29:29.207Z,80.05
2023-01-29T18:33:26.900Z,80.67
2023-01-29T18:37:24.939Z,80.72
2023-01-29T18:41:24.860Z,81.54
2023-01-29T18:45:22.907Z,81.45
2023-01-29T18:49:20.872Z,81.60
2023-01-29T18:53:19.113Z,81.69
2023-01-29T18:58:33.465Z,81.70
2023-01-29T19:01:34.870Z,81.83
2023-01-29T19:05:32.846Z,82.23
2023-01-29T19:09:30.923Z,81.86
2023-01-29T19:13:28.845Z,81.99
2023-01-29T19:17:26.979Z,82.11
2023-01-29T19:21:26.807Z,82.12
2023-01-29T19:25:25.831Z,82.44
2023-01-29T19:29:23.861Z,82.17
2023-01-29T19:33:22.077Z,82.00
2023-01-29T19:37:20.995Z,82.00
2023-01-29T19:41:18.921Z,81.76
2023-01-29T19:45:17.107Z,81.58
2023-01-29T19:49:36.791Z,81.34
2023-01-29T19:53:34.874Z,81.13
2023-01-29T19:57:13.209Z,81.04
2023-01-29T20:00:37.328Z,80.91
2023-01-29T20:04:03.423Z,80.79
2023-01-29T20:07:29.146Z,80.74
2023-01-29T20:10:53.289Z,80.65
2023-01-29T20:14:17.221Z,80.51
2023-01-29T20:17:43.746Z,80.44
2023-01-29T20:21:15.467Z,80.41
2023-01-29T20:24:42.496Z,80.40
2023-01-29T20:28:11.871Z,80.31
2023-01-29T20:31:37.147Z,80.15
2023-01-29T20:35:02.207Z,80.23
2023-01-29T20:38:32.002Z,80.27
2023-01-29T20:41:57.356Z,80.19
2023-01-29T20:45:22.148Z,80.25
2023-01-29T20:48:46.149Z,80.46
2023-01-29T20:52:12.638Z,80.67
2023-01-29T20:55:36.723Z,80.85
2023-01-29T20:59:01.167Z,80.89
2023-01-29T21:02:25.349Z,81.11
2023-01-29T21:05:50.354Z,81.09
2023-01-29T21:09:14.756Z,81.32
2023-01-29T21:12:38.669Z,81.37
2023-01-29T21:16:04.098Z,81.59
2023-01-29T21:19:29.315Z,81.86
2023-01-29T21:22:54.464Z,82.09
2023-01-29T21:26:19.042Z,82.01
2023-01-29T21:29:43.350Z,82.05
2023-01-29T21:33:07.481Z,82.54
2023-01-29T21:36:32.447Z,82.40
2023-01-29T21:39:56.635Z,82.30
2023-01-29T21:43:20.458Z,82.24
2023-01-29T21:46:44.279Z,82.26
2023-01-29T21:50:09.794Z,82.18
2023-01-29T21:53:33.754Z,82.30
2023-01-29T21:56:59.235Z,82.14
2023-01-29T22:00:25.667Z,81.87
2023-01-29T22:03:49.678Z,81.85
2023-01-29T22:07:15.146Z,81.73
2023-01-29T22:10:39.386Z,81.54
2023-01-29T22:14:03.460Z,81.48
2023-01-29T22:17:28.356Z,81.38
2023-01-29T22:20:57.090Z,81.28
2023-01-29T22:24:22.439Z,81.33
2023-01-29T22:27:47.985Z,81.30
2023-01-29T22:31:11.967Z,81.34
2023-01-29T22:34:35.789Z,81.18
2023-01-29T22:37:59.726Z,81.17
2023-01-29T22:41:23.686Z,81.22
2023-01-29T22:44:48.181Z,81.27
2023-01-29T22:48:12.546Z,81.35
2023-01-29T22:51:36.380Z,81.21
2023-01-29T22:55:00.227Z,81.21
2023-01-29T22:58:24.205Z,81.36
2023-01-29T23:01:48.368Z,81.26
2023-01-29T23:05:12.188Z,81.25
2023-01-29T23:08:36.374Z,81.15
2023-01-29T23:12:01.481Z,81.06
2023-01-29T23:15:25.367Z,81.01
2023-01-29T23:18:54.490Z,81.09
2023-01-29T23:22:18.460Z,81.18
2023-01-29T23:25:59.824Z,81.28
2023-01-29T23:29:24.169Z,81.30
2023-01-29T23:32:48.052Z,81.37
2023-01-29T23:36:12.079Z,81.45
2023-01-29T23:39:36.005Z,81.38
2023-01-29T23:42:59.899Z,81.34
2023-01-29T23:46:24.034Z,81.31
2023-01-29T23:49:48.000Z,81.35
2023-01-29T23:53:11.860Z,81.31
2023-01-29T23:56:35.779Z,81.26
2023-01-29T23:59:59.768Z,81.35
